Time;durP1;ratioP1;P1;durP2;ratioP2;P2;SDS_P1;SDS_P2;PMS_P1;PMS_P2;Temp;Humidity;BMP_temperature;BMP_pressure;BME280_temperature;BME280_humidity;BME280_pressure;Samples;Min_cycle;Max_cycle;Signal;HPM_P1;HPM_P2
2023/08/23 00:00:08;;;;;;;12.65;9.80;;;;;;;;;;5055882;28;20051;-79
2023/08/23 00:02:33;;;;;;;12.32;9.40;;;;;;;;;;5054238;28;20036;-80
2023/08/23 00:04:59;;;;;;;17.92;9.00;;;;;;;;;;5056712;28;20042;-80
2023/08/23 00:07:24;;;;;;;15.70;9.20;;;;;;;;;;5057693;28;20410;-80
2023/08/23 00:09:49;;;;;;;12.82;8.73;;;;;;;;;;5037140;28;20047;-80
2023/08/23 00:12:15;;;;;;;12.52;9.88;;;;;;;;;;5058723;28;20031;-79
2023/08/23 00:14:41;;;;;;;11.38;8.32;;;;;;;;;;5041444;28;20029;-79
2023/08/23 00:17:07;;;;;;;15.40;9.10;;;;;;;;;;5035947;28;20039;-81
2023/08/23 00:19:32;;;;;;;15.82;9.70;;;;;;;;;;5057004;28;20527;-79
2023/08/23 00:21:57;;;;;;;10.77;9.40;;;;;;;;;;5037606;28;20045;-81
2023/08/23 00:24:23;;;;;;;15.70;9.80;;;;;;;;;;5056911;28;20477;-77
2023/08/23 00:26:48;;;;;;;13.52;9.02;;;;;;;;;;5057092;28;20378;-80
2023/08/23 00:29:13;;;;;;;13.30;9.40;;;;;;;;;;5055146;28;20064;-80
2023/08/23 00:31:39;;;;;;;12.65;9.43;;;;;;;;;;5058522;28;20112;-80
2023/08/23 00:34:04;;;;;;;13.60;9.63;;;;;;;;;;5056556;28;20032;-81
2023/08/23 00:36:29;;;;;;;15.65;9.70;;;;;;;;;;5058361;28;20513;-80
2023/08/23 00:38:55;;;;;;;11.98;9.90;;;;;;;;;;5059252;28;20111;-79
2023/08/23 00:41:24;;;;;;;12.88;8.88;;;;;;;;;;5039972;28;20057;-79
2023/08/23 00:43:49;;;;;;;10.05;9.00;;;;;;;;;;5059163;28;20033;-79
2023/08/23 00:46:15;;;;;;;14.75;10.27;;;;;;;;;;5057055;28;20048;-79
2023/08/23 00:48:43;;;;;;;16.83;10.77;;;;;;;;;;5035508;28;20037;-79
2023/08/23 00:51:09;;;;;;;12.85;10.13;;;;;;;;;;5040410;28;20039;-77
2023/08/23 00:53:36;;;;;;;12.80;9.65;;;;;;;;;;5037805;28;20090;-83
2023/08/23 00:56:01;;;;;;;11.85;9.82;;;;;;;;;;5053681;28;20033;-83
2023/08/23 00:58:27;;;;;;;14.43;10.55;;;;;;;;;;5051997;28;20124;-83
2023/08/23 01:00:53;;;;;;;15.93;10.25;;;;;;;;;;5051407;28;20041;-85
2023/08/23 01:03:19;;;;;;;14.07;10.57;;;;;;;;;;5053782;28;20025;-80
2023/08/23 01:05:47;;;;;;;16.50;10.52;;;;;;;;;;5058009;28;20017;-81
2023/08/23 01:08:31;;;;;;;12.30;10.93;;;;;;;;;;5057435;28;20036;-81
2023/08/23 01:11:18;;;;;;;13.07;11.13;;;;;;;;;;5038887;28;20037;-83
2023/08/23 01:13:51;;;;;;;15.55;11.10;;;;;;;;;;5034710;28;20044;-83
2023/08/23 01:16:20;;;;;;;19.65;12.63;;;;;;;;;;5053498;28;20037;-83
2023/08/23 01:18:46;;;;;;;15.52;12.95;;;;;;;;;;5051451;28;20045;-84
2023/08/23 01:21:18;;;;;;;17.45;12.65;;;;;;;;;;5032249;28;20071;-84
2023/08/23 01:23:44;;;;;;;16.88;12.40;;;;;;;;;;5053921;28;20025;-85
2023/08/23 01:26:10;;;;;;;15.52;11.45;;;;;;;;;;5034349;28;20034;-85
2023/08/23 01:28:35;;;;;;;17.95;11.80;;;;;;;;;;5051358;28;20072;-84
2023/08/23 01:31:03;;;;;;;19.65;12.27;;;;;;;;;;5030944;28;20093;-82
2023/08/23 01:33:35;;;;;;;18.75;13.65;;;;;;;;;;5055502;28;20044;-84
2023/08/23 01:36:25;;;;;;;15.68;12.90;;;;;;;;;;5039452;28;20060;-81
2023/08/23 01:38:53;;;;;;;22.85;13.07;;;;;;;;;;5055663;28;20041;-82
2023/08/23 01:41:18;;;;;;;15.10;12.20;;;;;;;;;;5055109;28;20044;-85
2023/08/23 01:43:47;;;;;;;18.13;13.65;;;;;;;;;;5039668;28;20041;-84
2023/08/23 01:46:13;;;;;;;17.77;13.27;;;;;;;;;;5056546;28;20033;-83
2023/08/23 01:48:38;;;;;;;18.63;14.07;;;;;;;;;;5056325;28;20383;-83
2023/08/23 01:51:03;;;;;;;20.08;12.73;;;;;;;;;;5054763;28;20028;-84
2023/08/23 01:53:29;;;;;;;18.10;13.48;;;;;;;;;;5057518;28;20450;-84
2023/08/23 01:55:54;;;;;;;21.55;13.65;;;;;;;;;;5056922;28;20037;-82
2023/08/23 01:58:20;;;;;;;16.73;12.35;;;;;;;;;;5054078;28;20075;-83
2023/08/23 02:00:48;;;;;;;17.35;12.13;;;;;;;;;;5056200;28;20067;-85
2023/08/23 02:03:14;;;;;;;19.75;11.85;;;;;;;;;;5054832;28;20079;-83
2023/08/23 02:05:39;;;;;;;15.00;11.63;;;;;;;;;;5053801;28;20459;-85
2023/08/23 02:08:05;;;;;;;16.65;13.27;;;;;;;;;;5034661;28;20040;-86
2023/08/23 02:10:30;;;;;;;20.30;14.43;;;;;;;;;;5037478;28;20040;-84
2023/08/23 02:12:56;;;;;;;19.15;14.75;;;;;;;;;;5054949;28;20439;-85
2023/08/23 02:15:21;;;;;;;19.23;14.40;;;;;;;;;;5055035;28;20051;-84
2023/08/23 02:17:47;;;;;;;15.57;13.38;;;;;;;;;;5054548;28;20023;-83
2023/08/23 02:20:12;;;;;;;17.10;13.48;;;;;;;;;;5055582;28;20041;-84
2023/08/23 02:22:37;;;;;;;23.73;15.13;;;;;;;;;;5055286;28;20095;-83
2023/08/23 02:25:03;;;;;;;25.15;14.32;;;;;;;;;;5056085;28;20041;-84
2023/08/23 02:27:28;;;;;;;19.73;13.95;;;;;;;;;;5053829;28;20044;-84
2023/08/23 02:29:53;;;;;;;18.60;13.75;;;;;;;;;;5038155;28;20052;-85
2023/08/23 02:32:19;;;;;;;32.92;16.15;;;;;;;;;;5054063;28;20052;-82
2023/08/23 02:34:44;;;;;;;24.08;15.50;;;;;;;;;;5037450;28;20620;-83
2023/08/23 02:37:09;;;;;;;19.90;15.00;;;;;;;;;;5037362;28;20446;-84
2023/08/23 02:39:35;;;;;;;19.00;14.27;;;;;;;;;;5054732;28;20045;-83
2023/08/23 02:42:00;;;;;;;22.80;12.80;;;;;;;;;;5056067;28;20397;-82
2023/08/23 02:44:25;;;;;;;24.50;13.90;;;;;;;;;;5054044;28;20087;-85
2023/08/23 02:46:50;;;;;;;18.75;14.05;;;;;;;;;;5055617;28;20029;-84
2023/08/23 02:49:16;;;;;;;18.60;15.43;;;;;;;;;;5054499;28;20100;-83
2023/08/23 02:51:41;;;;;;;19.10;14.40;;;;;;;;;;5053853;28;20037;-84
2023/08/23 02:54:06;;;;;;;17.95;13.70;;;;;;;;;;5055016;28;20021;-82
2023/08/23 02:56:32;;;;;;;16.65;12.48;;;;;;;;;;5037758;28;20021;-84
2023/08/23 02:58:57;;;;;;;16.05;12.20;;;;;;;;;;5052964;28;20950;-84
2023/08/23 03:01:23;;;;;;;17.15;13.35;;;;;;;;;;5054545;28;20402;-83
2023/08/23 03:03:48;;;;;;;19.83;14.07;;;;;;;;;;5056413;28;20065;-84
2023/08/23 03:06:14;;;;;;;17.65;13.20;;;;;;;;;;5055554;28;20021;-81
2023/08/23 03:08:39;;;;;;;14.82;11.32;;;;;;;;;;5036785;28;20053;-84
2023/08/23 03:11:05;;;;;;;20.65;12.23;;;;;;;;;;5053009;28;20255;-85
2023/08/23 03:13:32;;;;;;;22.20;12.60;;;;;;;;;;5054138;28;20036;-84
2023/08/23 03:15:57;;;;;;;17.58;12.95;;;;;;;;;;5055468;28;20025;-83
2023/08/23 03:18:23;;;;;;;18.70;12.85;;;;;;;;;;5053002;28;20533;-83
2023/08/23 03:20:49;;;;;;;16.13;12.98;;;;;;;;;;5053804;28;20017;-82
2023/08/23 03:23:19;;;;;;;22.17;13.23;;;;;;;;;;5054329;28;20049;-85
2023/08/23 03:25:45;;;;;;;16.02;12.75;;;;;;;;;;5058771;28;20045;-83
2023/08/23 03:28:11;;;;;;;15.98;13.20;;;;;;;;;;5057388;28;20036;-83
2023/08/23 03:30:36;;;;;;;18.08;12.30;;;;;;;;;;5062018;28;20064;-82
2023/08/23 03:33:02;;;;;;;21.77;13.05;;;;;;;;;;5054259;28;20087;-80
2023/08/23 03:35:27;;;;;;;14.93;11.70;;;;;;;;;;5056065;28;20443;-80
2023/08/23 03:37:53;;;;;;;17.65;12.52;;;;;;;;;;5055412;28;20105;-79
2023/08/23 03:40:18;;;;;;;19.95;13.88;;;;;;;;;;5054428;28;20037;-79
2023/08/23 03:42:44;;;;;;;18.77;14.95;;;;;;;;;;5041330;28;20029;-79
2023/08/23 03:45:10;;;;;;;19.73;14.52;;;;;;;;;;5059540;28;20032;-79
2023/08/23 03:47:35;;;;;;;20.70;14.57;;;;;;;;;;5042417;28;20095;-78
2023/08/23 03:50:00;;;;;;;20.67;14.35;;;;;;;;;;5056268;28;20087;-79
2023/08/23 03:52:26;;;;;;;21.13;13.82;;;;;;;;;;5059361;28;20146;-80
2023/08/23 03:54:51;;;;;;;20.13;12.05;;;;;;;;;;5059348;28;20029;-79
2023/08/23 03:57:16;;;;;;;20.10;13.02;;;;;;;;;;5057929;28;20008;-79
2023/08/23 03:59:42;;;;;;;17.60;12.77;;;;;;;;;;5056059;28;20029;-79
2023/08/23 04:02:07;;;;;;;22.02;13.73;;;;;;;;;;5057885;28;20025;-80
2023/08/23 04:04:32;;;;;;;26.70;13.38;;;;;;;;;;5040900;28;20059;-79
2023/08/23 04:06:58;;;;;;;19.27;14.15;;;;;;;;;;5058359;28;20561;-79
2023/08/23 04:09:23;;;;;;;19.52;13.88;;;;;;;;;;5057361;28;20093;-81
2023/08/23 04:11:48;;;;;;;26.30;14.60;;;;;;;;;;5059174;28;20091;-79
2023/08/23 04:14:14;;;;;;;23.52;15.35;;;;;;;;;;5058874;28;20025;-79
2023/08/23 04:16:39;;;;;;;21.52;14.93;;;;;;;;;;5056014;28;20022;-80
2023/08/23 04:19:04;;;;;;;20.35;16.25;;;;;;;;;;5058713;28;20060;-79
2023/08/23 04:21:29;;;;;;;19.85;15.85;;;;;;;;;;5071382;23;20049;-79
2023/08/23 04:23:55;;;;;;;22.13;16.23;;;;;;;;;;5055924;28;20089;-79
2023/08/23 04:26:20;;;;;;;20.65;14.40;;;;;;;;;;5054883;28;20025;-78
2023/08/23 04:28:46;;;;;;;21.90;14.45;;;;;;;;;;5054530;28;20037;-78
2023/08/23 04:31:12;;;;;;;19.70;13.80;;;;;;;;;;5036570;28;20112;-79
2023/08/23 04:33:37;;;;;;;18.13;14.48;;;;;;;;;;5036627;28;20068;-79
2023/08/23 04:36:04;;;;;;;19.02;13.45;;;;;;;;;;5054081;28;20021;-79
2023/08/23 04:38:29;;;;;;;18.25;13.13;;;;;;;;;;5053646;28;20108;-78
2023/08/23 04:41:04;;;;;;;16.75;12.05;;;;;;;;;;5035918;28;20560;-79
2023/08/23 04:43:30;;;;;;;18.70;13.00;;;;;;;;;;5036078;28;20053;-79
2023/08/23 04:45:55;;;;;;;21.75;15.20;;;;;;;;;;5035448;28;20076;-79
2023/08/23 04:48:23;;;;;;;22.45;16.10;;;;;;;;;;5053377;28;20033;-78
2023/08/23 04:50:55;;;;;;;23.50;14.52;;;;;;;;;;5053776;28;20032;-78
2023/08/23 04:53:21;;;;;;;16.60;13.13;;;;;;;;;;5035740;28;20045;-79
2023/08/23 04:55:48;;;;;;;18.90;14.60;;;;;;;;;;5036032;28;20338;-79
2023/08/23 04:58:13;;;;;;;20.70;14.18;;;;;;;;;;5054186;28;20029;-78
2023/08/23 05:00:39;;;;;;;19.30;13.82;;;;;;;;;;5035669;28;20380;-77
2023/08/23 05:03:04;;;;;;;22.83;13.02;;;;;;;;;;5054845;28;20025;-81
2023/08/23 05:05:29;;;;;;;19.73;12.15;;;;;;;;;;5055324;28;20131;-80
2023/08/23 05:07:55;;;;;;;20.88;12.80;;;;;;;;;;5038818;28;20071;-79
2023/08/23 05:10:20;;;;;;;17.08;12.32;;;;;;;;;;5058668;28;20209;-81
2023/08/23 05:12:46;;;;;;;18.70;11.75;;;;;;;;;;5041442;28;20140;-81
2023/08/23 05:15:11;;;;;;;15.73;11.95;;;;;;;;;;5040915;28;20088;-80
2023/08/23 05:17:37;;;;;;;15.43;11.75;;;;;;;;;;5058258;28;20316;-78
2023/08/23 05:20:03;;;;;;;13.65;11.35;;;;;;;;;;5057995;28;20067;-78
2023/08/23 05:22:28;;;;;;;15.27;10.85;;;;;;;;;;5057078;28;20053;-79
2023/08/23 05:24:53;;;;;;;21.40;11.80;;;;;;;;;;5039766;28;20033;-81
2023/08/23 05:27:18;;;;;;;14.32;12.00;;;;;;;;;;5058454;28;20017;-81
2023/08/23 05:29:44;;;;;;;17.48;11.98;;;;;;;;;;5059127;28;20025;-80
2023/08/23 05:32:10;;;;;;;17.50;11.73;;;;;;;;;;5058301;28;20069;-81
2023/08/23 05:34:35;;;;;;;15.57;10.57;;;;;;;;;;5040700;28;20064;-80
2023/08/23 05:37:00;;;;;;;13.73;9.55;;;;;;;;;;5040195;28;20048;-81
2023/08/23 05:39:26;;;;;;;13.25;10.60;;;;;;;;;;5040004;28;20045;-81
2023/08/23 05:41:51;;;;;;;16.52;10.15;;;;;;;;;;5041037;28;20594;-80
2023/08/23 05:44:16;;;;;;;12.57;9.13;;;;;;;;;;5057838;28;20069;-81
2023/08/23 05:46:42;;;;;;;19.27;9.40;;;;;;;;;;5058178;28;20636;-80
2023/08/23 05:49:07;;;;;;;15.00;10.30;;;;;;;;;;5058285;28;20086;-81
2023/08/23 05:51:32;;;;;;;10.88;8.80;;;;;;;;;;5039826;28;20060;-81
2023/08/23 05:53:58;;;;;;;11.90;9.05;;;;;;;;;;5034366;28;20040;-81
2023/08/23 05:56:24;;;;;;;14.70;9.20;;;;;;;;;;5051930;28;20048;-78
2023/08/23 05:58:49;;;;;;;10.50;8.73;;;;;;;;;;5037931;28;20458;-78
2023/08/23 06:01:15;;;;;;;16.95;9.50;;;;;;;;;;5038258;28;20438;-80
2023/08/23 06:03:40;;;;;;;9.88;8.27;;;;;;;;;;5052681;28;20037;-78
2023/08/23 06:06:05;;;;;;;10.40;7.97;;;;;;;;;;5055500;28;20379;-78
2023/08/23 06:08:30;;;;;;;11.10;8.02;;;;;;;;;;5038270;28;20029;-78
2023/08/23 06:10:56;;;;;;;11.27;8.00;;;;;;;;;;5056750;28;20063;-79
2023/08/23 06:13:22;;;;;;;12.60;7.68;;;;;;;;;;5038854;28;20033;-78
2023/08/23 06:15:47;;;;;;;15.55;7.38;;;;;;;;;;5038295;28;20049;-78
2023/08/23 06:18:13;;;;;;;9.13;7.75;;;;;;;;;;5033741;28;20025;-79
2023/08/23 06:20:39;;;;;;;8.63;7.32;;;;;;;;;;5037366;28;20036;-79
2023/08/23 06:23:04;;;;;;;12.35;8.00;;;;;;;;;;5029134;28;20037;-78
2023/08/23 06:25:29;;;;;;;15.23;8.15;;;;;;;;;;5037437;28;20075;-78
2023/08/23 06:27:54;;;;;;;11.00;6.95;;;;;;;;;;5055649;28;20068;-78
2023/08/23 06:30:21;;;;;;;11.60;7.60;;;;;;;;;;5037731;28;20680;-80
2023/08/23 06:32:48;;;;;;;13.80;6.70;;;;;;;;;;5038648;28;20105;-79
2023/08/23 06:35:14;;;;;;;9.45;7.05;;;;;;;;;;5056300;28;20048;-77
2023/08/23 06:37:40;;;;;;;8.13;6.68;;;;;;;;;;5037857;28;20044;-77
2023/08/23 06:40:06;;;;;;;9.30;6.50;;;;;;;;;;5038208;28;20033;-78
2023/08/23 06:42:32;;;;;;;8.20;6.85;;;;;;;;;;5055499;28;20052;-79
2023/08/23 06:44:57;;;;;;;11.25;6.78;;;;;;;;;;5039178;28;20044;-79
2023/08/23 06:47:22;;;;;;;8.02;6.80;;;;;;;;;;5055516;28;20133;-79
2023/08/23 06:49:48;;;;;;;8.38;6.25;;;;;;;;;;5056146;28;20033;-79
2023/08/23 06:52:13;;;;;;;9.30;5.97;;;;;;;;;;5056343;28;20045;-78
2023/08/23 06:54:38;;;;;;;8.25;6.00;;;;;;;;;;5038280;28;20124;-78
2023/08/23 06:57:04;;;;;;;9.05;5.75;;;;;;;;;;5037257;28;20028;-78
2023/08/23 06:59:29;;;;;;;9.73;5.43;;;;;;;;;;5057086;28;20040;-79
2023/08/23 07:01:54;;;;;;;10.25;5.68;;;;;;;;;;5056514;28;20037;-77
2023/08/23 07:04:19;;;;;;;5.88;5.22;;;;;;;;;;5037574;28;20056;-79
2023/08/23 07:06:45;;;;;;;11.73;5.50;;;;;;;;;;5056123;28;20060;-79
2023/08/23 07:09:10;;;;;;;9.95;5.70;;;;;;;;;;5055962;28;20487;-79
2023/08/23 07:11:35;;;;;;;13.93;5.20;;;;;;;;;;5056345;28;20017;-79
2023/08/23 07:14:01;;;;;;;6.28;5.38;;;;;;;;;;5055417;28;20044;-77
2023/08/23 07:16:26;;;;;;;10.52;5.30;;;;;;;;;;5036943;28;20029;-79
2023/08/23 07:18:51;;;;;;;6.88;5.28;;;;;;;;;;5037634;28;20037;-78
2023/08/23 07:21:16;;;;;;;9.77;5.63;;;;;;;;;;5055173;28;20063;-79
2023/08/23 07:23:42;;;;;;;11.50;5.30;;;;;;;;;;5038902;28;20033;-80
2023/08/23 07:26:09;;;;;;;11.75;5.90;;;;;;;;;;5038060;28;20077;-79
2023/08/23 07:28:34;;;;;;;9.05;5.65;;;;;;;;;;5055385;28;20040;-79
2023/08/23 07:31:00;;;;;;;9.27;5.80;;;;;;;;;;5037452;28;20052;-80
2023/08/23 07:33:26;;;;;;;5.90;5.10;;;;;;;;;;5055990;28;20075;-78
2023/08/23 07:35:59;;;;;;;8.00;5.35;;;;;;;;;;5037463;28;20028;-79
2023/08/23 07:38:25;;;;;;;9.00;5.03;;;;;;;;;;5054903;28;20088;-78
2023/08/23 07:40:55;;;;;;;8.07;4.78;;;;;;;;;;5054341;28;20446;-77
2023/08/23 07:43:21;;;;;;;9.93;6.22;;;;;;;;;;5037901;28;20478;-79
2023/08/23 07:45:54;;;;;;;9.13;5.28;;;;;;;;;;5055461;28;20025;-80
2023/08/23 07:48:20;;;;;;;6.93;5.03;;;;;;;;;;5056176;28;20017;-80
2023/08/23 07:50:49;;;;;;;8.05;5.40;;;;;;;;;;5055634;28;20031;-79
2023/08/23 07:53:15;;;;;;;10.95;5.50;;;;;;;;;;5055404;28;20047;-78
2023/08/23 07:55:40;;;;;;;10.70;5.60;;;;;;;;;;5038338;28;20037;-81
2023/08/23 07:58:05;;;;;;;14.07;5.57;;;;;;;;;;5037594;28;20029;-79
2023/08/23 08:00:31;;;;;;;6.53;5.32;;;;;;;;;;5054922;28;20422;-79
2023/08/23 08:02:56;;;;;;;16.10;5.68;;;;;;;;;;5056024;28;20025;-79
2023/08/23 08:05:22;;;;;;;7.03;5.32;;;;;;;;;;5055905;28;20045;-77
2023/08/23 08:07:47;;;;;;;6.20;5.60;;;;;;;;;;5037429;28;20036;-79
2023/08/23 08:10:13;;;;;;;11.88;5.22;;;;;;;;;;5055314;28;20041;-79
2023/08/23 08:12:38;;;;;;;8.10;5.38;;;;;;;;;;5054908;28;20059;-77
2023/08/23 08:15:06;;;;;;;8.95;5.40;;;;;;;;;;5036288;28;20094;-79
2023/08/23 08:17:32;;;;;;;7.93;5.13;;;;;;;;;;5056157;28;20390;-80
2023/08/23 08:19:58;;;;;;;6.47;4.70;;;;;;;;;;5055299;28;20482;-80
2023/08/23 08:22:23;;;;;;;8.35;5.10;;;;;;;;;;5037617;28;20064;-80
2023/08/23 08:24:48;;;;;;;7.45;5.15;;;;;;;;;;5038747;28;20033;-80
2023/08/23 08:27:14;;;;;;;7.65;4.80;;;;;;;;;;5038299;28;20045;-79
2023/08/23 08:29:39;;;;;;;7.10;4.82;;;;;;;;;;5057304;28;20044;-80
2023/08/23 08:32:05;;;;;;;7.70;4.50;;;;;;;;;;5056893;28;20037;-80
2023/08/23 08:34:30;;;;;;;9.02;4.63;;;;;;;;;;5056229;28;20037;-80
2023/08/23 08:36:55;;;;;;;7.82;4.03;;;;;;;;;;5055159;28;20414;-80
2023/08/23 08:39:21;;;;;;;5.30;4.20;;;;;;;;;;5056457;28;20029;-80
2023/08/23 08:41:46;;;;;;;9.63;4.55;;;;;;;;;;5038827;28;20124;-80
2023/08/23 08:44:12;;;;;;;9.00;3.85;;;;;;;;;;5056295;28;20033;-80
2023/08/23 08:46:39;;;;;;;14.23;4.28;;;;;;;;;;5038251;28;20029;-80
2023/08/23 08:49:04;;;;;;;10.00;3.95;;;;;;;;;;5038290;28;20040;-80
2023/08/23 08:51:35;;;;;;;4.85;3.15;;;;;;;;;;5038210;28;20037;-80
2023/08/23 08:54:01;;;;;;;10.38;3.75;;;;;;;;;;5056787;28;20104;-80
2023/08/23 08:56:26;;;;;;;4.68;4.03;;;;;;;;;;5037649;28;20033;-80
2023/08/23 08:58:52;;;;;;;8.13;3.80;;;;;;;;;;5037413;28;20045;-81
2023/08/23 09:01:18;;;;;;;4.20;3.40;;;;;;;;;;5055339;28;20040;-80
2023/08/23 09:03:44;;;;;;;5.55;3.97;;;;;;;;;;5056271;28;20041;-80
2023/08/23 09:06:09;;;;;;;6.10;3.47;;;;;;;;;;5054743;28;20071;-80
2023/08/23 09:08:35;;;;;;;5.35;3.63;;;;;;;;;;5037331;28;20040;-79
2023/08/23 09:11:00;;;;;;;7.00;4.00;;;;;;;;;;5055292;28;20033;-80
2023/08/23 09:13:26;;;;;;;10.27;3.78;;;;;;;;;;5054688;28;20033;-80
2023/08/23 09:15:51;;;;;;;6.57;4.05;;;;;;;;;;5054340;28;20048;-79
2023/08/23 09:18:19;;;;;;;11.60;4.10;;;;;;;;;;5036112;28;20021;-79
2023/08/23 09:20:45;;;;;;;8.35;3.90;;;;;;;;;;5037633;28;20527;-80
2023/08/23 09:23:10;;;;;;;9.25;3.70;;;;;;;;;;5037463;28;20064;-80
2023/08/23 09:25:35;;;;;;;4.30;3.60;;;;;;;;;;5055196;28;20040;-79
2023/08/23 09:28:01;;;;;;;10.20;4.13;;;;;;;;;;5036859;28;20037;-80
2023/08/23 09:30:27;;;;;;;12.15;4.50;;;;;;;;;;5036731;28;20040;-80
2023/08/23 09:32:52;;;;;;;7.03;4.22;;;;;;;;;;5037822;28;20395;-79
2023/08/23 09:35:17;;;;;;;6.03;4.18;;;;;;;;;;5055137;28;20032;-79
2023/08/23 09:37:48;;;;;;;6.40;3.50;;;;;;;;;;5054668;28;20033;-80
2023/08/23 09:40:17;;;;;;;7.38;3.70;;;;;;;;;;5037438;28;20037;-80
2023/08/23 09:42:43;;;;;;;7.15;3.53;;;;;;;;;;5037600;28;20128;-78
2023/08/23 09:45:13;;;;;;;7.03;3.70;;;;;;;;;;5037017;28;20024;-80
2023/08/23 09:47:41;;;;;;;5.22;3.90;;;;;;;;;;5055867;28;20444;-80
2023/08/23 09:50:08;;;;;;;10.60;4.13;;;;;;;;;;5055144;28;20029;-79
2023/08/23 09:52:36;;;;;;;4.57;3.35;;;;;;;;;;5055260;28;20407;-79
2023/08/23 09:55:09;;;;;;;4.93;3.67;;;;;;;;;;5038749;28;20041;-80
2023/08/23 09:57:35;;;;;;;6.05;3.70;;;;;;;;;;5058443;28;20037;-79
2023/08/23 10:00:01;;;;;;;8.15;3.47;;;;;;;;;;5041962;28;20029;-80
2023/08/23 10:02:27;;;;;;;6.05;3.70;;;;;;;;;;5040661;28;20033;-80
2023/08/23 10:04:53;;;;;;;8.27;3.20;;;;;;;;;;5058710;28;20032;-81
2023/08/23 10:07:19;;;;;;;4.80;3.65;;;;;;;;;;5058968;28;20033;-80
2023/08/23 10:09:45;;;;;;;8.90;3.63;;;;;;;;;;5040884;28;20384;-80
2023/08/23 10:12:12;;;;;;;3.60;3.20;;;;;;;;;;5040602;28;20475;-81
2023/08/23 10:14:43;;;;;;;4.82;3.92;;;;;;;;;;5041372;28;20056;-79
2023/08/23 10:17:11;;;;;;;4.05;3.53;;;;;;;;;;5058960;28;20041;-80
2023/08/23 10:19:37;;;;;;;7.18;3.90;;;;;;;;;;5040785;28;20088;-79
2023/08/23 10:22:02;;;;;;;5.03;3.80;;;;;;;;;;5078931;23;20041;-81
2023/08/23 10:24:28;;;;;;;4.35;3.53;;;;;;;;;;5053988;28;20075;-81
2023/08/23 10:26:53;;;;;;;5.80;3.72;;;;;;;;;;5054164;28;20079;-83
2023/08/23 10:29:26;;;;;;;7.22;3.95;;;;;;;;;;5052619;28;20029;-79
2023/08/23 10:31:55;;;;;;;6.50;3.88;;;;;;;;;;5034794;28;20037;-81
2023/08/23 10:34:27;;;;;;;9.57;3.90;;;;;;;;;;5055047;28;20080;-81
2023/08/23 10:36:54;;;;;;;7.00;4.43;;;;;;;;;;5053522;28;20651;-81
2023/08/23 10:39:26;;;;;;;6.75;4.18;;;;;;;;;;5051635;28;20033;-81
2023/08/23 10:41:54;;;;;;;4.75;3.70;;;;;;;;;;5054810;28;20048;-81
2023/08/23 10:44:20;;;;;;;6.32;3.88;;;;;;;;;;5053313;28;20049;-80
2023/08/23 10:46:51;;;;;;;4.30;3.90;;;;;;;;;;5033593;28;20044;-82
2023/08/23 10:49:20;;;;;;;3.75;3.40;;;;;;;;;;5055022;28;20036;-81
2023/08/23 10:51:46;;;;;;;7.13;3.83;;;;;;;;;;5054278;28;20048;-80
2023/08/23 10:54:13;;;;;;;4.40;3.97;;;;;;;;;;5057003;28;20021;-81
2023/08/23 10:56:49;;;;;;;4.85;4.10;;;;;;;;;;5062008;28;20920;-85
2023/08/23 10:59:14;;;;;;;4.40;4.00;;;;;;;;;;5055799;28;20041;-83
2023/08/23 11:01:39;;;;;;;6.20;4.30;;;;;;;;;;5038522;28;20086;-84
2023/08/23 11:04:08;;;;;;;4.82;3.97;;;;;;;;;;5055718;28;20029;-81
2023/08/23 11:06:35;;;;;;;7.55;4.00;;;;;;;;;;5050551;28;20038;-85
2023/08/23 11:09:00;;;;;;;7.93;3.90;;;;;;;;;;5056634;28;20021;-84
2023/08/23 11:11:29;;;;;;;9.00;3.72;;;;;;;;;;5055710;28;20037;-84
2023/08/23 11:13:54;;;;;;;11.10;4.15;;;;;;;;;;5037813;28;20037;-85
2023/08/23 11:16:21;;;;;;;9.07;4.15;;;;;;;;;;5038130;28;20031;-84
2023/08/23 11:18:46;;;;;;;11.40;4.15;;;;;;;;;;5052991;28;20100;-83
2023/08/23 11:21:12;;;;;;;9.15;3.80;;;;;;;;;;5053141;28;20316;-84
2023/08/23 11:23:38;;;;;;;6.53;3.95;;;;;;;;;;5037548;28;20063;-83
2023/08/23 11:26:03;;;;;;;9.75;3.72;;;;;;;;;;5052720;28;20040;-84
2023/08/23 11:28:30;;;;;;;7.20;3.80;;;;;;;;;;5056347;28;20037;-82
2023/08/23 11:30:58;;;;;;;7.20;3.83;;;;;;;;;;5056211;28;20044;-83
2023/08/23 11:33:23;;;;;;;4.20;3.70;;;;;;;;;;5056218;28;20040;-83
2023/08/23 11:35:49;;;;;;;6.35;3.60;;;;;;;;;;5054432;28;20163;-83
2023/08/23 11:38:14;;;;;;;7.10;3.92;;;;;;;;;;5047865;28;20538;-85
2023/08/23 11:40:45;;;;;;;8.85;3.85;;;;;;;;;;5049146;28;20069;-84
2023/08/23 11:43:14;;;;;;;5.82;3.70;;;;;;;;;;5057498;28;20037;-81
2023/08/23 11:45:41;;;;;;;8.95;3.80;;;;;;;;;;5058348;28;20048;-82
2023/08/23 11:48:08;;;;;;;6.30;3.80;;;;;;;;;;5060518;28;20474;-82
2023/08/23 11:50:33;;;;;;;6.13;3.80;;;;;;;;;;5060758;28;20033;-83
2023/08/23 11:53:02;;;;;;;5.35;4.13;;;;;;;;;;5058425;28;20079;-83
2023/08/23 11:55:28;;;;;;;4.35;3.50;;;;;;;;;;5058501;28;20037;-83
2023/08/23 11:57:54;;;;;;;7.70;3.60;;;;;;;;;;5009290;28;20418;-80
2023/08/23 12:00:20;;;;;;;4.55;4.15;;;;;;;;;;5010792;28;20012;-80
2023/08/23 12:02:46;;;;;;;8.15;4.10;;;;;;;;;;5031893;28;20053;-78
2023/08/23 12:05:13;;;;;;;4.85;4.18;;;;;;;;;;5048915;28;20037;-81
2023/08/23 12:07:38;;;;;;;5.60;4.15;;;;;;;;;;5053267;28;20100;-81
2023/08/23 12:10:08;;;;;;;6.80;3.90;;;;;;;;;;5051596;28;20071;-81
2023/08/23 12:12:35;;;;;;;4.40;4.03;;;;;;;;;;5058829;28;20029;-81
2023/08/23 12:15:01;;;;;;;5.78;3.85;;;;;;;;;;5061812;28;20029;-79
2023/08/23 12:17:27;;;;;;;8.02;3.92;;;;;;;;;;5058434;28;20071;-80
2023/08/23 12:19:52;;;;;;;11.50;4.10;;;;;;;;;;5062048;28;20118;-81
2023/08/23 12:22:17;;;;;;;6.63;4.78;;;;;;;;;;5062628;28;20037;-79
2023/08/23 12:24:43;;;;;;;7.95;4.05;;;;;;;;;;5059236;28;20071;-80
2023/08/23 12:27:08;;;;;;;8.07;3.70;;;;;;;;;;5057449;28;20024;-79
2023/08/23 12:29:33;;;;;;;8.60;4.00;;;;;;;;;;5031376;28;20240;-79
2023/08/23 12:31:59;;;;;;;6.60;4.05;;;;;;;;;;5037778;28;20032;-81
2023/08/23 12:34:24;;;;;;;4.50;3.90;;;;;;;;;;5056905;28;20036;-81
2023/08/23 12:36:49;;;;;;;7.03;3.72;;;;;;;;;;5056229;28;20037;-80
2023/08/23 12:39:16;;;;;;;5.70;3.75;;;;;;;;;;5052421;28;20458;-81
2023/08/23 12:41:42;;;;;;;5.20;3.80;;;;;;;;;;5061810;28;20021;-80
2023/08/23 12:44:08;;;;;;;5.72;3.67;;;;;;;;;;5061965;28;20146;-83
2023/08/23 12:46:33;;;;;;;7.95;3.83;;;;;;;;;;5062287;28;20239;-83
2023/08/23 12:48:59;;;;;;;9.65;4.30;;;;;;;;;;5049962;28;20124;-84
2023/08/23 12:51:24;;;;;;;7.07;4.10;;;;;;;;;;5046449;28;20413;-83
2023/08/23 12:53:50;;;;;;;8.75;3.90;;;;;;;;;;5050898;28;20028;-81
2023/08/23 12:56:16;;;;;;;4.22;3.70;;;;;;;;;;5051762;28;20044;-82
2023/08/23 12:58:41;;;;;;;5.10;4.32;;;;;;;;;;5048391;28;20101;-81
2023/08/23 13:01:07;;;;;;;6.93;4.10;;;;;;;;;;5050961;28;20029;-82
2023/08/23 13:03:32;;;;;;;6.82;4.13;;;;;;;;;;5053093;28;20044;-83
2023/08/23 13:05:58;;;;;;;8.13;4.32;;;;;;;;;;5053934;28;20060;-83
2023/08/23 13:08:23;;;;;;;7.72;3.97;;;;;;;;;;5053028;28;20060;-84
2023/08/23 13:10:49;;;;;;;10.07;4.20;;;;;;;;;;5055145;28;20044;-84
2023/08/23 13:13:14;;;;;;;4.97;3.95;;;;;;;;;;5052758;28;20037;-85
2023/08/23 13:15:40;;;;;;;14.18;4.65;;;;;;;;;;5047387;28;20124;-82
2023/08/23 13:18:05;;;;;;;5.13;4.38;;;;;;;;;;5050213;28;21816;-85
2023/08/23 13:20:30;;;;;;;6.20;4.30;;;;;;;;;;5051876;28;20048;-84
2023/08/23 13:22:57;;;;;;;6.32;4.32;;;;;;;;;;5049391;28;20360;-83
2023/08/23 13:25:22;;;;;;;7.15;4.22;;;;;;;;;;5049399;28;20116;-81
2023/08/23 13:27:47;;;;;;;6.85;4.20;;;;;;;;;;5052393;28;20067;-83
2023/08/23 13:30:13;;;;;;;5.95;4.60;;;;;;;;;;5057963;28;20028;-83
2023/08/23 13:32:38;;;;;;;4.32;3.90;;;;;;;;;;5053480;28;20033;-82
2023/08/23 13:35:04;;;;;;;6.70;3.95;;;;;;;;;;5053919;28;20096;-83
2023/08/23 13:37:33;;;;;;;7.00;4.35;;;;;;;;;;5057513;28;20095;-86
2023/08/23 13:40:05;;;;;;;7.50;4.50;;;;;;;;;;5055696;28;20041;-85
2023/08/23 13:42:31;;;;;;;6.55;4.40;;;;;;;;;;5056449;28;20041;-85
2023/08/23 13:44:57;;;;;;;6.90;4.25;;;;;;;;;;5056334;28;20351;-82
2023/08/23 13:47:22;;;;;;;8.45;4.10;;;;;;;;;;5052136;28;20052;-83
2023/08/23 13:49:47;;;;;;;7.50;3.80;;;;;;;;;;5050362;28;20041;-83
2023/08/23 13:52:14;;;;;;;6.57;4.10;;;;;;;;;;5051307;28;20550;-83
2023/08/23 13:54:40;;;;;;;8.88;4.40;;;;;;;;;;5064924;28;20033;-82
2023/08/23 13:57:05;;;;;;;4.72;3.90;;;;;;;;;;5063664;28;20028;-83
2023/08/23 13:59:30;;;;;;;6.40;4.13;;;;;;;;;;5064695;28;20028;-83
2023/08/23 14:01:56;;;;;;;4.53;4.10;;;;;;;;;;5046001;28;20037;-83
2023/08/23 14:04:23;;;;;;;6.35;4.07;;;;;;;;;;5046104;28;20105;-82
2023/08/23 14:06:49;;;;;;;8.93;4.00;;;;;;;;;;5045029;28;20095;-83
2023/08/23 14:09:15;;;;;;;10.57;3.83;;;;;;;;;;5041809;28;20033;-80
2023/08/23 14:11:51;;;;;;;14.75;4.25;;;;;;;;;;5043477;28;20097;-79
2023/08/23 14:14:16;;;;;;;7.72;4.00;;;;;;;;;;5044918;28;20029;-82
2023/08/23 14:16:41;;;;;;;7.03;4.05;;;;;;;;;;5053537;28;20402;-84
2023/08/23 14:19:07;;;;;;;14.88;4.15;;;;;;;;;;5047474;28;20036;-82
2023/08/23 14:21:32;;;;;;;10.38;3.80;;;;;;;;;;5065191;28;20060;-82
2023/08/23 14:23:57;;;;;;;7.40;4.38;;;;;;;;;;5065505;28;20119;-83